createdAt,value
2023-05-11T00:00:32.407Z,100940.22
2023-05-11T00:01:35.769Z,100941.11
2023-05-11T00:02:37.907Z,100939.38
2023-05-11T00:03:40.095Z,100940.30
2023-05-11T00:04:42.783Z,100935.98
2023-05-11T00:05:48.187Z,100939.47
2023-05-11T00:06:50.416Z,100940.39
2023-05-11T00:07:52.979Z,100939.58
2023-05-11T00:08:55.425Z,100940.48
2023-05-11T00:09:57.720Z,100935.20
2023-05-11T00:11:00.059Z,100939.58
2023-05-11T00:12:02.628Z,100940.48
2023-05-11T00:13:04.841Z,100936.94
2023-05-11T00:14:07.004Z,100940.51
2023-05-11T00:15:09.676Z,100928.19
2023-05-11T00:16:12.042Z,100936.10
2023-05-11T00:17:14.340Z,100945.73
2023-05-11T00:18:16.408Z,100935.26
2023-05-11T00:19:18.698Z,100941.44
2023-05-11T00:20:21.032Z,100934.36
2023-05-11T00:21:23.409Z,100939.70
2023-05-11T00:22:25.676Z,100936.30
2023-05-11T00:23:28.168Z,100940.59
2023-05-11T00:24:30.428Z,100941.49
2023-05-11T00:25:32.441Z,100937.09
2023-05-11T00:26:34.668Z,100940.66
2023-05-11T00:27:37.034Z,100938.02
2023-05-11T00:28:39.229Z,100934.51
2023-05-11T00:29:41.503Z,100941.58
2023-05-11T00:30:43.908Z,100934.56
2023-05-11T00:31:46.578Z,100939.89
2023-05-11T00:32:50.139Z,100940.82
2023-05-11T00:33:53.318Z,100934.73
2023-05-11T00:34:56.068Z,100932.94
2023-05-11T00:35:59.264Z,100940.97
2023-05-11T00:37:01.823Z,100943.54
2023-05-11T00:38:04.018Z,100941.84
2023-05-11T00:39:06.232Z,100935.70
2023-05-11T00:40:09.256Z,100934.84
2023-05-11T00:41:11.700Z,100934.84
2023-05-11T00:42:14.005Z,100937.48
2023-05-11T00:43:17.505Z,100941.94
2023-05-11T00:44:19.607Z,100939.22
2023-05-11T00:45:22.121Z,100939.33
2023-05-11T00:46:24.439Z,100936.69
2023-05-11T00:47:27.336Z,100938.45
2023-05-11T00:48:29.700Z,100935.84
2023-05-11T00:49:32.984Z,100935.09
2023-05-11T00:50:35.413Z,100933.31
2023-05-11T00:51:38.824Z,100932.47
2023-05-11T00:52:41.474Z,100929.91
2023-05-11T00:53:44.182Z,100938.70
2023-05-11T00:54:47.365Z,100936.98
2023-05-11T00:55:49.731Z,100938.86
2023-05-11T00:56:52.377Z,100935.33
2023-05-11T00:57:55.024Z,100940.59
2023-05-11T00:58:57.883Z,100931.89
2023-05-11T01:00:02.077Z,100941.52
2023-05-11T01:01:05.131Z,100938.91
2023-05-11T01:02:07.888Z,100936.30
2023-05-11T01:03:10.731Z,100933.64
2023-05-11T01:04:13.294Z,100943.23
2023-05-11T01:05:15.961Z,100948.55
2023-05-11T01:06:24.816Z,100944.18
2023-05-11T01:07:50.516Z,100946.79
2023-05-11T01:10:15.167Z,100940.44
2023-05-11T01:12:51.728Z,100940.59
2023-05-11T01:15:24.314Z,100938.11
2023-05-11T01:16:31.160Z,100945.47
2023-05-11T01:17:43.183Z,100941.95
2023-05-11T01:20:13.887Z,100945.10
2023-05-11T01:21:17.347Z,100950.72
2023-05-11T01:23:51.230Z,100940.75
2023-05-11T01:26:35.949Z,100944.23
2023-05-11T01:28:01.920Z,100946.30
2023-05-11T01:29:30.213Z,100948.93
2023-05-11T01:31:53.690Z,100945.97
2023-05-11T01:32:59.143Z,100947.19
2023-05-11T01:34:04.934Z,100954.22
2023-05-11T01:36:26.027Z,100944.30
2023-05-11T01:37:31.915Z,100953.44
2023-05-11T01:38:37.710Z,100955.97
2023-05-11T01:39:46.894Z,100955.98
2023-05-11T01:40:52.749Z,100953.35
2023-05-11T01:41:57.859Z,100952.39
2023-05-11T01:44:13.132Z,100947.71
2023-05-11T01:45:18.338Z,100951.52
2023-05-11T01:46:24.492Z,100956.74
2023-05-11T01:47:29.407Z,100947.05
2023-05-11T01:48:35.089Z,100951.34
2023-05-11T01:49:40.008Z,100948.70
2023-05-11T01:50:43.728Z,100951.34
2023-05-11T01:52:57.244Z,100938.80
2023-05-11T01:54:01.895Z,100949.60
2023-05-11T01:55:06.787Z,100941.75
2023-05-11T01:56:13.731Z,100939.95
2023-05-11T01:57:17.354Z,100938.16
2023-05-11T01:58:22.911Z,100944.33
2023-05-11T01:59:27.541Z,100948.78
2023-05-11T02:00:32.603Z,100942.64
2023-05-11T02:01:35.083Z,100940.01
2023-05-11T02:02:37.600Z,100948.81
2023-05-11T02:03:42.900Z,100938.19
2023-05-11T02:04:46.474Z,100942.59
2023-05-11T02:05:51.015Z,100947.94
2023-05-11T02:06:56.278Z,100946.16
2023-05-11T02:08:01.516Z,100945.33
2023-05-11T02:09:06.759Z,100940.06
2023-05-11T02:10:11.238Z,100940.98
2023-05-11T02:11:15.388Z,100941.84
2023-05-11T02:12:19.654Z,100951.52
2023-05-11T02:13:24.086Z,100945.37
2023-05-11T02:14:28.981Z,100941.89
2023-05-11T02:15:33.398Z,100951.56
2023-05-11T02:16:37.135Z,100953.31
2023-05-11T02:17:40.482Z,100949.78
2023-05-11T02:18:43.933Z,100956.84
2023-05-11T02:19:47.438Z,100956.84
2023-05-11T02:20:51.165Z,100957.75
2023-05-11T02:21:55.555Z,100963.85
2023-05-11T02:22:59.466Z,100960.39
2023-05-11T02:24:04.878Z,100960.49
2023-05-11T02:25:09.269Z,100956.14
2023-05-11T02:26:14.267Z,100952.63
2023-05-11T02:27:16.633Z,100955.22
2023-05-11T02:28:19.613Z,100959.63
2023-05-11T02:29:21.993Z,100955.22
2023-05-11T02:30:28.385Z,100953.48
2023-05-11T02:31:34.616Z,100955.31
2023-05-11T02:32:41.008Z,100966.75
2023-05-11T02:33:46.371Z,100960.62
2023-05-11T02:36:20.447Z,100964.77
2023-05-11T02:37:24.915Z,100963.36
2023-05-11T02:38:33.714Z,100969.52
2023-05-11T02:39:39.871Z,100964.23
2023-05-11T02:40:48.872Z,100962.49
2023-05-11T02:41:57.133Z,100964.28
2023-05-11T02:43:12.650Z,100961.66
2023-05-11T02:44:18.317Z,100966.94
2023-05-11T02:45:22.840Z,100967.77
2023-05-11T02:46:28.762Z,100969.50
2023-05-11T02:47:34.890Z,100966.89
2023-05-11T02:48:40.848Z,100958.97
2023-05-11T02:49:46.460Z,100963.34
2023-05-11T02:50:51.924Z,100967.77
2023-05-11T02:51:55.755Z,100964.28
2023-05-11T02:53:01.741Z,100971.25
2023-05-11T02:54:07.736Z,100971.19
2023-05-11T02:55:14.681Z,100965.90
2023-05-11T02:56:18.034Z,100960.62
2023-05-11T02:57:20.779Z,100966.72
2023-05-11T02:58:23.181Z,100962.37
2023-05-11T02:59:28.017Z,100965.85
2023-05-11T03:00:32.414Z,100970.19
2023-05-11T03:01:35.068Z,100970.16
2023-05-11T03:02:37.580Z,100971.91
2023-05-11T03:03:40.800Z,100970.14
2023-05-11T03:04:43.550Z,100971.91
2023-05-11T03:05:45.866Z,100968.30
2023-05-11T03:06:48.260Z,100977.07
2023-05-11T03:07:52.851Z,100973.52
2023-05-11T03:08:55.237Z,100972.70
2023-05-11T03:09:58.406Z,100984.94
2023-05-11T03:11:02.495Z,100977.92
2023-05-11T03:12:05.870Z,100983.19
2023-05-11T03:13:09.416Z,100979.70
2023-05-11T03:14:12.502Z,100979.70
2023-05-11T03:15:15.386Z,100979.66
2023-05-11T03:16:21.427Z,100978.75
2023-05-11T03:17:26.165Z,100980.47
2023-05-11T03:18:30.529Z,100979.57
2023-05-11T03:19:33.367Z,100980.42
2023-05-11T03:20:39.363Z,100989.12
2023-05-11T03:21:42.222Z,100989.06
2023-05-11T03:22:45.938Z,100984.66
2023-05-11T03:23:49.406Z,100987.25
2023-05-11T03:24:52.278Z,100985.44
2023-05-11T03:25:55.712Z,100979.22
2023-05-11T03:26:59.980Z,100994.98
2023-05-11T03:28:04.507Z,100989.66
2023-05-11T03:29:08.183Z,100987.88
2023-05-11T03:30:13.781Z,100994.84
2023-05-11T03:31:19.468Z,100992.09
2023-05-11T03:32:21.888Z,100987.61
2023-05-11T03:33:25.127Z,100996.38
2023-05-11T03:34:27.610Z,100990.09
2023-05-11T03:35:32.796Z,100997.06
2023-05-11T03:36:37.763Z,101003.16
2023-05-11T03:37:42.422Z,100996.00
2023-05-11T03:38:46.830Z,101002.06
2023-05-11T03:39:54.284Z,100999.37
2023-05-11T03:40:57.933Z,101009.78
2023-05-11T03:42:02.624Z,101002.66
2023-05-11T03:43:08.247Z,100992.94
2023-05-11T03:44:12.636Z,101000.75
2023-05-11T03:45:18.555Z,101007.68
2023-05-11T03:46:22.767Z,100997.94
2023-05-11T03:47:29.166Z,101004.02
2023-05-11T03:48:32.499Z,101003.97
2023-05-11T03:49:38.363Z,101004.72
2023-05-11T03:50:41.431Z,101003.76
2023-05-11T03:51:44.794Z,101008.05
2023-05-11T03:52:48.294Z,101009.66
2023-05-11T03:53:50.626Z,101008.70
2023-05-11T03:54:53.107Z,101004.27
2023-05-11T03:55:55.409Z,101015.57
2023-05-11T03:56:58.142Z,101013.73
2023-05-11T03:58:01.752Z,101009.27
2023-05-11T03:59:05.397Z,101014.45
2023-05-11T04:00:10.800Z,101016.97
2023-05-11T04:01:19.564Z,101014.27
2023-05-11T04:02:22.022Z,101020.31
2023-05-11T04:03:25.059Z,101010.52
2023-05-11T04:04:29.521Z,101022.77
2023-05-11T04:05:33.250Z,101018.28
2023-05-11T04:06:37.268Z,101018.22
2023-05-11T04:07:47.420Z,101026.88
2023-05-11T04:08:49.703Z,101025.95
2023-05-11T04:09:52.484Z,101016.17
2023-05-11T04:10:54.706Z,101014.38
2023-05-11T04:11:57.509Z,101023.10
2023-05-11T04:13:00.010Z,101020.39
2023-05-11T04:14:02.419Z,101022.97
2023-05-11T04:15:05.100Z,101022.90
2023-05-11T04:16:07.922Z,101019.34
2023-05-11T04:17:10.276Z,101021.95
2023-05-11T04:18:12.607Z,101022.83
2023-05-11T04:19:14.933Z,101026.27
2023-05-11T04:20:17.536Z,101022.66
2023-05-11T04:21:20.107Z,101024.33
2023-05-11T04:22:23.042Z,101026.90
2023-05-11T04:23:25.371Z,101027.73
2023-05-11T04:24:27.466Z,101029.44
2023-05-11T04:25:29.696Z,101026.69
2023-05-11T04:26:32.693Z,101028.42
2023-05-11T04:27:35.800Z,101032.77
2023-05-11T04:28:39.375Z,101041.55
2023-05-11T04:29:41.743Z,101037.05
2023-05-11T04:30:44.041Z,101036.11
2023-05-11T04:31:46.371Z,101039.55
2023-05-11T04:32:48.767Z,101041.22
2023-05-11T04:33:51.030Z,101036.77
2023-05-11T04:34:54.205Z,101035.78
2023-05-11T04:35:58.221Z,101042.81
2023-05-11T04:37:01.176Z,101032.12
2023-05-11T04:38:03.835Z,101030.30
2023-05-11T04:39:08.147Z,101033.78
2023-05-11T04:40:13.092Z,101043.39
2023-05-11T04:41:17.082Z,101039.83
2023-05-11T04:42:20.322Z,101036.24
2023-05-11T04:43:24.360Z,101037.88
2023-05-11T04:44:26.962Z,101036.92
2023-05-11T04:45:29.591Z,101037.75
2023-05-11T04:46:32.331Z,101039.45
2023-05-11T04:47:34.686Z,101042.89
2023-05-11T04:48:37.488Z,101038.40
2023-05-11T04:49:39.994Z,101040.92
2023-05-11T04:50:42.652Z,101033.81
2023-05-11T04:51:45.725Z,101034.67
2023-05-11T04:52:48.952Z,101029.30
2023-05-11T04:53:52.397Z,101036.27
2023-05-11T04:54:54.652Z,101030.88
2023-05-11T04:55:57.926Z,101029.94
2023-05-11T04:57:00.166Z,101025.47
2023-05-11T04:58:02.449Z,101033.33
2023-05-11T04:59:05.559Z,101028.78
2023-05-11T05:00:09.232Z,101029.61
2023-05-11T05:01:11.597Z,101035.73
2023-05-11T05:02:15.063Z,101038.30
2023-05-11T05:03:18.373Z,101035.62
2023-05-11T05:04:21.384Z,101027.58
2023-05-11T05:05:24.282Z,101037.20
2023-05-11T05:06:26.585Z,101032.72
2023-05-11T05:07:28.806Z,101029.98
2023-05-11T05:08:31.532Z,101019.30
2023-05-11T05:09:34.572Z,101036.86
2023-05-11T05:10:36.808Z,101034.09
2023-05-11T05:11:39.491Z,101032.22
2023-05-11T05:12:41.769Z,101031.27
2023-05-11T05:13:44.319Z,101033.83
2023-05-11T05:14:47.194Z,101027.57
2023-05-11T05:15:49.778Z,101031.88
2023-05-11T05:16:52.326Z,101032.66
2023-05-11T05:17:54.709Z,101033.44
2023-05-11T05:18:57.888Z,101029.84
2023-05-11T05:20:00.444Z,101034.18
2023-05-11T05:21:02.755Z,101041.09
2023-05-11T05:22:04.952Z,101040.09
2023-05-11T05:23:07.267Z,101038.22
2023-05-11T05:24:09.484Z,101033.70
2023-05-11T05:25:11.799Z,101036.17
2023-05-11T05:26:14.506Z,101039.56
2023-05-11T05:27:16.823Z,101034.16
2023-05-11T05:28:20.050Z,101040.21
2023-05-11T05:29:22.688Z,101037.47
2023-05-11T05:30:25.095Z,101033.80
2023-05-11T05:31:27.450Z,101036.36
2023-05-11T05:32:31.166Z,101032.66
2023-05-11T05:33:34.496Z,101038.70
2023-05-11T05:34:37.615Z,101037.69
2023-05-11T05:35:39.934Z,101034.02
2023-05-11T05:36:42.259Z,101036.50
2023-05-11T05:37:49.199Z,101044.31
2023-05-11T05:38:52.953Z,101033.55
2023-05-11T05:39:58.248Z,101036.94
2023-05-11T05:41:01.936Z,101034.14
2023-05-11T05:42:08.182Z,101035.73
2023-05-11T05:43:16.151Z,101042.64
2023-05-11T05:44:20.479Z,101035.39
2023-05-11T05:45:24.395Z,101039.68
2023-05-11T05:46:27.433Z,101034.27
2023-05-11T05:47:29.906Z,101034.13
2023-05-11T05:48:36.172Z,101034.84
2023-05-11T05:49:41.869Z,101033.86
2023-05-11T05:50:48.877Z,101035.45
2023-05-11T05:51:52.658Z,101037.09
2023-05-11T05:52:58.226Z,101035.14
2023-05-11T05:54:04.035Z,101039.39
2023-05-11T05:55:11.960Z,101030.39
2023-05-11T05:56:18.086Z,101035.61
2023-05-11T05:57:22.396Z,101029.27
2023-05-11T05:58:30.543Z,101029.98
2023-05-11T05:59:34.093Z,101027.17
2023-05-11T06:00:42.232Z,101025.22
2023-05-11T06:01:45.100Z,101035.59
2023-05-11T06:02:50.631Z,101031.85
2023-05-11T06:03:59.021Z,101028.97
2023-05-11T06:05:03.891Z,101040.22
2023-05-11T06:06:10.921Z,101035.59
2023-05-11T06:07:15.123Z,101028.23
2023-05-11T06:08:17.332Z,101030.77
2023-05-11T06:09:20.721Z,101030.60
2023-05-11T06:10:23.496Z,101036.67
2023-05-11T06:11:35.549Z,101035.48
2023-05-11T06:12:40.071Z,101034.50
2023-05-11T06:13:44.580Z,101033.31
2023-05-11T06:14:46.850Z,101034.88
2023-05-11T06:15:51.316Z,101034.63
2023-05-11T06:16:57.769Z,101029.10
2023-05-11T06:18:04.200Z,101032.39
2023-05-11T06:19:10.044Z,101034.78
2023-05-11T06:20:18.357Z,101032.74
2023-05-11T06:21:24.579Z,101029.80
2023-05-11T06:22:26.945Z,101029.56
2023-05-11T06:23:31.959Z,101025.75
2023-05-11T06:24:36.707Z,101030.80
2023-05-11T06:25:41.859Z,101026.14
2023-05-11T06:26:49.508Z,101025.92
2023-05-11T06:27:54.625Z,101026.66
2023-05-11T06:29:01.394Z,101022.88
2023-05-11T06:30:07.546Z,101021.72
2023-05-11T06:31:13.213Z,101024.94
2023-05-11T06:32:18.210Z,101026.44
2023-05-11T06:33:21.021Z,101027.98
2023-05-11T06:34:24.140Z,101019.72
2023-05-11T06:35:29.988Z,101025.69
2023-05-11T06:36:33.494Z,101029.02
2023-05-11T06:37:41.844Z,101025.22
2023-05-11T06:38:45.444Z,101024.19
2023-05-11T06:39:48.192Z,101029.39
2023-05-11T06:40:56.795Z,101025.72
2023-05-11T06:42:04.327Z,101020.32
2023-05-11T06:43:08.651Z,101022.05
2023-05-11T06:44:22.299Z,101032.59
2023-05-11T06:45:27.523Z,101026.38
2023-05-11T06:46:31.559Z,101026.22
2023-05-11T06:47:35.136Z,101024.52
2023-05-11T06:48:38.392Z,101027.08
2023-05-11T06:49:47.600Z,101029.61
2023-05-11T06:50:51.320Z,101031.34
2023-05-11T06:51:56.316Z,101033.02
2023-05-11T06:52:59.390Z,101034.75
2023-05-11T06:54:07.512Z,101034.67
2023-05-11T06:55:13.364Z,101032.80
2023-05-11T06:57:29.176Z,101034.03
2023-05-11T06:58:31.764Z,101037.04
2023-05-11T06:59:34.080Z,101031.70
2023-05-11T07:00:36.393Z,101036.97
2023-05-11T07:01:38.703Z,101031.56
2023-05-11T07:02:41.086Z,101038.56
2023-05-11T07:03:43.690Z,101034.03
2023-05-11T07:04:46.086Z,101033.02
2023-05-11T07:05:48.293Z,101031.15
2023-05-11T07:06:50.613Z,101036.31
2023-05-11T07:07:52.953Z,101025.50
2023-05-11T07:08:55.290Z,101029.84
2023-05-11T07:09:57.947Z,101026.02
2023-05-11T07:11:00.139Z,101027.54
2023-05-11T07:12:02.564Z,101029.06
2023-05-11T07:13:05.789Z,101028.81
2023-05-11T07:14:08.097Z,101025.93
2023-05-11T07:15:11.219Z,101028.31
2023-05-11T07:16:14.063Z,101024.53
2023-05-11T07:17:16.367Z,101024.16
2023-05-11T07:18:18.609Z,101019.36
2023-05-11T07:19:20.834Z,101026.14
2023-05-11T07:20:23.210Z,101029.45
2023-05-11T07:21:25.336Z,101031.88
2023-05-11T07:22:27.696Z,101021.91
2023-05-11T07:23:29.980Z,101022.55
2023-05-11T07:24:32.868Z,101023.08
2023-05-11T07:25:35.238Z,101029.92
2023-05-11T07:26:37.426Z,101022.55
2023-05-11T07:27:39.488Z,101021.34
2023-05-11T07:28:41.773Z,101029.13
2023-05-11T07:29:43.998Z,101025.36
2023-05-11T07:30:47.255Z,101026.91
2023-05-11T07:31:49.665Z,101031.16
2023-05-11T07:32:52.050Z,101023.84
2023-05-11T07:33:54.602Z,101024.52
2023-05-11T07:34:57.044Z,101029.72
2023-05-11T07:35:59.245Z,101024.21
2023-05-11T07:37:01.509Z,101012.41
2023-05-11T07:38:03.748Z,101017.53
2023-05-11T07:39:06.098Z,101018.23
2023-05-11T07:40:09.534Z,101020.67
2023-05-11T07:41:12.777Z,101021.38
2023-05-11T07:42:15.556Z,101013.35
2023-05-11T07:43:18.388Z,101018.62
2023-05-11T07:44:20.921Z,101015.75
2023-05-11T07:45:23.190Z,101020.08
2023-05-11T07:46:25.553Z,101020.00
2023-05-11T07:47:27.797Z,101016.30
2023-05-11T07:48:30.196Z,101023.30
2023-05-11T07:49:42.936Z,101016.05
2023-05-11T07:50:36.635Z,101012.31
2023-05-11T07:51:39.026Z,101014.83
2023-05-11T07:52:41.336Z,101011.13
2023-05-11T07:53:43.528Z,101007.42
2023-05-11T07:54:45.723Z,101013.48
2023-05-11T07:55:48.733Z,101010.52
2023-05-11T07:56:52.315Z,101009.50
2023-05-11T07:57:54.880Z,101008.47
2023-05-11T07:58:56.936Z,101010.89
2023-05-11T07:59:59.615Z,101002.75
2023-05-11T08:01:02.910Z,101006.20
2023-05-11T08:02:07.356Z,101006.41
2023-05-11T08:03:09.725Z,101009.16
2023-05-11T08:04:11.950Z,101002.16
2023-05-11T08:05:14.703Z,101010.20
2023-05-11T08:06:17.186Z,101008.47
2023-05-11T08:07:19.439Z,101007.52
2023-05-11T08:08:21.627Z,101004.67
2023-05-11T08:09:24.235Z,100993.77
2023-05-11T08:10:26.844Z,100988.25
2023-05-11T08:11:29.681Z,100995.16
2023-05-11T08:12:32.388Z,100986.77
2023-05-11T08:13:35.563Z,100979.34
2023-05-11T08:14:37.836Z,100989.63
2023-05-11T08:15:40.320Z,100984.76
2023-05-11T08:16:42.554Z,100984.25
2023-05-11T08:17:44.817Z,100985.69
2023-05-11T08:18:47.159Z,100998.04
2023-05-11T08:19:49.404Z,100989.05
2023-05-11T08:20:51.893Z,100992.68
2023-05-11T08:21:54.371Z,100985.69
2023-05-11T08:22:56.966Z,100986.63
2023-05-11T08:23:59.656Z,100985.94
2023-05-11T08:25:02.243Z,100990.55
2023-05-11T08:26:04.674Z,100998.77
2023-05-11T08:27:06.817Z,100995.30
2023-05-11T08:28:09.066Z,100993.75
2023-05-11T08:29:11.787Z,100989.42
2023-05-11T08:30:14.813Z,100990.38
2023-05-11T08:31:18.623Z,100988.77
2023-05-11T08:32:21.444Z,100992.39
2023-05-11T08:34:28.778Z,100997.05
2023-05-11T08:35:31.067Z,100993.59
2023-05-11T08:36:33.973Z,100993.59
2023-05-11T08:37:36.306Z,100993.59
2023-05-11T08:38:39.354Z,100993.59
2023-05-11T08:39:47.234Z,100992.56
2023-05-11T08:40:45.778Z,100997.58
2023-05-11T08:41:49.281Z,100996.52
2023-05-11T08:42:56.293Z,100984.67
2023-05-11T08:44:00.019Z,100986.32
2023-05-11T08:45:04.727Z,100991.67
2023-05-11T08:46:10.529Z,100991.50
2023-05-11T08:48:18.454Z,100993.23
2023-05-11T08:49:21.170Z,100989.61
2023-05-11T08:50:23.797Z,100986.14
2023-05-11T08:51:26.031Z,100987.09
2023-05-11T08:52:28.209Z,100989.77
2023-05-11T08:53:30.708Z,100983.47
2023-05-11T08:54:32.854Z,100982.69
2023-05-11T08:55:36.155Z,100977.33
2023-05-11T08:56:41.254Z,100984.33
2023-05-11T08:57:45.932Z,100993.23
2023-05-11T08:58:49.968Z,100996.66
2023-05-11T08:59:55.587Z,100994.76
2023-05-11T09:00:58.853Z,101001.67
2023-05-11T09:02:03.676Z,100989.91
2023-05-11T09:03:06.262Z,100987.96
2023-05-11T09:04:09.103Z,100980.58
2023-05-11T09:05:13.100Z,100986.45
2023-05-11T09:06:17.433Z,100984.55
2023-05-11T09:07:23.661Z,100983.51
2023-05-11T09:08:29.469Z,100973.66
2023-05-11T09:09:31.781Z,100985.03
2023-05-11T09:10:36.734Z,100982.26
2023-05-11T09:11:39.455Z,100986.48
2023-05-11T09:12:41.821Z,100978.27
2023-05-11T09:13:44.256Z,100979.13
2023-05-11T09:14:46.570Z,100974.64
2023-05-11T09:15:48.833Z,100976.36
2023-05-11T09:16:51.057Z,100977.23
2023-05-11T09:17:53.319Z,100977.31
2023-05-11T09:18:59.127Z,100971.18
2023-05-11T09:20:06.387Z,100974.81
2023-05-11T09:21:08.603Z,100975.86
2023-05-11T09:22:10.806Z,100967.12
2023-05-11T09:23:16.706Z,100972.49
2023-05-11T09:24:20.715Z,100969.03
2023-05-11T09:25:23.836Z,100963.88
2023-05-11T09:26:26.963Z,100967.52
2023-05-11T09:27:29.253Z,100973.83
2023-05-11T09:28:35.880Z,100975.73
2023-05-11T09:29:36.033Z,100966.05
2023-05-11T09:30:38.281Z,100972.28
2023-05-11T09:31:45.485Z,100967.88
2023-05-11T09:34:20.222Z,100966.27
2023-05-11T09:35:31.495Z,100963.11
2023-05-11T09:36:33.977Z,100961.86
2023-05-11T09:37:36.600Z,100955.28
2023-05-11T09:38:38.762Z,100963.70
2023-05-11T09:39:59.306Z,100956.25
2023-05-11T09:40:56.009Z,100955.89
2023-05-11T09:43:27.085Z,100952.05
2023-05-11T09:44:32.412Z,100943.82
2023-05-11T09:45:36.652Z,100956.95
2023-05-11T09:46:43.561Z,100953.22
2023-05-11T09:47:47.667Z,100950.33
2023-05-11T09:48:59.709Z,100949.46
2023-05-11T09:50:05.572Z,100945.83
2023-05-11T09:51:07.804Z,100947.64
2023-05-11T09:52:15.020Z,100946.78
2023-05-11T09:53:17.392Z,100951.19
2023-05-11T09:54:21.263Z,100947.00
2023-05-11T09:55:24.057Z,100944.41
2023-05-11T09:56:47.784Z,100948.05
2023-05-11T09:57:59.471Z,100941.91
2023-05-11T09:59:02.134Z,100953.59
2023-05-11T10:00:08.550Z,100945.81
2023-05-11T10:01:12.859Z,100945.94
2023-05-11T10:02:26.754Z,100942.39
2023-05-11T10:03:29.144Z,100946.89
2023-05-11T10:04:32.820Z,100941.53
2023-05-11T10:05:36.690Z,100941.53
2023-05-11T10:06:47.824Z,100937.89
2023-05-11T10:09:09.277Z,100939.59
2023-05-11T10:10:13.323Z,100931.09
2023-05-11T10:11:15.765Z,100928.31
2023-05-11T10:12:22.185Z,100931.86
2023-05-11T10:13:25.630Z,100935.41
2023-05-11T10:14:29.994Z,100931.77
2023-05-11T10:15:34.821Z,100932.42
2023-05-11T10:16:39.128Z,100926.87
2023-05-11T10:17:42.343Z,100929.45
2023-05-11T10:18:45.680Z,100926.77
2023-05-11T10:19:48.626Z,100924.09
2023-05-11T10:20:51.143Z,100928.59
2023-05-11T10:21:55.846Z,100918.73
2023-05-11T10:22:58.562Z,100923.91
2023-05-11T10:24:02.421Z,100918.14
2023-05-11T10:25:07.324Z,100925.81
2023-05-11T10:26:10.598Z,100928.02
2023-05-11T10:27:13.714Z,100927.61
2023-05-11T10:28:16.443Z,100920.91
2023-05-11T10:29:20.363Z,100919.66
2023-05-11T10:30:23.224Z,100921.20
2023-05-11T10:31:26.126Z,100922.73
2023-05-11T10:32:30.628Z,100923.28
2023-05-11T10:33:34.208Z,100910.52
2023-05-11T10:34:36.720Z,100917.42
2023-05-11T10:35:39.612Z,100915.28
2023-05-11T10:36:42.282Z,100906.83
2023-05-11T10:37:46.822Z,100909.32
2023-05-11T10:38:49.263Z,100906.11
2023-05-11T10:39:51.793Z,100906.78
2023-05-11T10:40:58.389Z,100894.97
2023-05-11T10:42:27.047Z,100903.56
2023-05-11T10:43:41.894Z,100910.46
2023-05-11T10:44:47.694Z,100908.34
2023-05-11T10:46:30.186Z,100912.66
2023-05-11T10:47:43.978Z,100906.41
2023-05-11T10:49:07.229Z,100905.66
2023-05-11T10:50:19.822Z,100908.54
2023-05-11T10:51:45.792Z,100912.61
2023-05-11T10:53:01.032Z,100912.81
2023-05-11T10:54:12.700Z,100902.47
2023-05-11T10:55:36.448Z,100907.50
2023-05-11T10:57:09.612Z,100907.89
2023-05-11T10:58:15.496Z,100910.04
2023-05-11T10:59:55.855Z,100897.20
2023-05-11T11:01:01.955Z,100901.03
2023-05-11T11:02:05.594Z,100898.67
2023-05-11T11:03:11.638Z,100905.09
2023-05-11T11:04:13.970Z,100896.09
2023-05-11T11:05:33.747Z,100904.91
2023-05-11T11:06:38.734Z,100904.71
2023-05-11T11:08:01.723Z,100903.42
2023-05-11T11:09:06.372Z,100899.59
2023-05-11T11:10:12.180Z,100896.61
2023-05-11T11:12:42.114Z,100889.80
2023-05-11T11:13:58.936Z,100883.86
2023-05-11T11:15:03.832Z,100895.17
2023-05-11T11:16:08.220Z,100884.76
2023-05-11T11:17:19.851Z,100885.32
2023-05-11T11:18:30.554Z,100892.22
2023-05-11T11:19:35.399Z,100884.16
2023-05-11T11:22:00.482Z,100886.66
2023-05-11T11:23:02.929Z,100883.09
2023-05-11T11:24:05.847Z,100884.16
2023-05-11T11:25:10.002Z,100883.39
2023-05-11T11:26:14.745Z,100882.73
2023-05-11T11:27:17.083Z,100882.94
2023-05-11T11:28:21.286Z,100877.56
2023-05-11T11:29:24.129Z,100881.11
2023-05-11T11:30:30.223Z,100881.88
2023-05-11T11:31:33.927Z,100877.27
2023-05-11T11:32:36.316Z,100878.02
2023-05-11T11:33:39.306Z,100880.61
2023-05-11T11:34:41.539Z,100879.75
2023-05-11T11:35:45.665Z,100877.16
2023-05-11T11:37:01.415Z,100879.95
2023-05-11T11:38:03.826Z,100878.22
2023-05-11T11:39:07.404Z,100886.48
2023-05-11T11:40:15.348Z,100878.66
2023-05-11T11:41:18.416Z,100883.37
2023-05-11T11:42:35.629Z,100881.64
2023-05-11T11:43:44.337Z,100879.05
2023-05-11T11:44:46.679Z,100876.66
2023-05-11T11:47:22.836Z,100877.03
2023-05-11T11:48:36.996Z,100880.74
2023-05-11T11:49:44.396Z,100869.91
2023-05-11T11:50:48.628Z,100872.39
2023-05-11T11:51:50.912Z,100879.25
2023-05-11T11:52:53.224Z,100880.87
2023-05-11T11:54:00.499Z,100883.27
2023-05-11T11:55:03.520Z,100868.64
2023-05-11T11:56:09.737Z,100865.55
2023-05-11T11:58:49.099Z,100862.80
2023-05-11T11:59:52.628Z,100865.06
2023-05-11T12:00:55.087Z,100857.52
2023-05-11T12:01:59.250Z,100856.36
2023-05-11T12:03:03.666Z,100859.36
2023-05-11T12:04:19.007Z,100856.39
2023-05-11T12:05:24.440Z,100863.28
2023-05-11T12:06:30.713Z,100864.56
2023-05-11T12:07:33.561Z,100868.66
2023-05-11T12:08:37.680Z,100867.59
2023-05-11T12:09:40.220Z,100859.41
2023-05-11T12:10:43.466Z,100851.34
2023-05-11T12:11:46.496Z,100862.20
2023-05-11T12:14:01.952Z,100860.03
2023-05-11T12:15:05.448Z,100862.62
2023-05-11T12:16:12.697Z,100857.25
2023-05-11T12:17:19.188Z,100850.80
2023-05-11T12:18:22.423Z,100856.17
2023-05-11T12:19:24.810Z,100857.59
2023-05-11T12:20:26.986Z,100855.52
2023-05-11T12:21:31.676Z,100855.41
2023-05-11T12:22:35.869Z,100858.96
2023-05-11T12:23:38.197Z,100852.72
2023-05-11T12:24:40.757Z,100857.23
2023-05-11T12:25:43.509Z,100850.37
2023-05-11T12:26:45.643Z,100853.58
2023-05-11T12:27:54.055Z,100851.86
2023-05-11T12:29:13.969Z,100851.86
2023-05-11T12:30:20.843Z,100849.92
2023-05-11T12:31:23.125Z,100856.06
2023-05-11T12:32:27.855Z,100847.78
2023-05-11T12:33:30.357Z,100849.30
2023-05-11T12:34:32.773Z,100838.28
2023-05-11T12:35:35.057Z,100843.23
2023-05-11T12:36:37.334Z,100841.09
2023-05-11T12:37:43.305Z,100838.91
2023-05-11T12:38:46.737Z,100840.41
2023-05-11T12:39:53.828Z,100842.53
2023-05-11T12:40:56.113Z,100845.75
2023-05-11T12:41:58.836Z,100842.73
2023-05-11T12:43:01.122Z,100845.93
2023-05-11T12:44:03.516Z,100836.88
2023-05-11T12:45:07.248Z,100834.84
2023-05-11T12:46:10.111Z,100833.64